createdAt,value
2018-11-29T00:00:46.840Z,96.80
2018-11-29T00:03:16.944Z,96.80
2018-11-29T00:05:47.039Z,96.60
2018-11-29T00:08:16.380Z,96.50
2018-11-29T00:10:46.291Z,96.60
2018-11-29T00:13:15.441Z,96.50
2018-11-29T00:15:44.740Z,95.70
2018-11-29T00:18:13.925Z,95.40
2018-11-29T00:20:43.051Z,95.40
2018-11-29T00:23:12.244Z,95.60
2018-11-29T00:25:41.439Z,95.90
2018-11-29T00:28:10.593Z,95.60
2018-11-29T00:30:40.729Z,95.80
2018-11-29T00:33:10.006Z,95.60
2018-11-29T00:35:39.196Z,95.30
2018-11-29T00:38:08.616Z,95.60
2018-11-29T00:40:38.410Z,96.20
2018-11-29T00:43:07.548Z,96.20
2018-11-29T00:45:36.707Z,96.70
2018-11-29T00:48:06.025Z,96.30
2018-11-29T00:50:35.638Z,96.60
2018-11-29T00:53:04.896Z,96.40
2018-11-29T00:55:34.031Z,96.70
2018-11-29T00:58:03.185Z,96.20
2018-11-29T01:00:32.404Z,95.80
2018-11-29T01:03:01.574Z,95.70
2018-11-29T01:05:30.691Z,95.70
2018-11-29T01:07:59.903Z,96.00
2018-11-29T01:10:29.057Z,95.90
2018-11-29T01:12:58.187Z,95.50
2018-11-29T01:15:27.389Z,95.10
2018-11-29T01:17:56.544Z,94.30
2018-11-29T01:20:25.701Z,94.50
2018-11-29T01:22:54.892Z,94.70
2018-11-29T01:25:24.695Z,94.50
2018-11-29T01:27:53.846Z,94.10
2018-11-29T01:30:23.220Z,93.70
2018-11-29T01:32:52.353Z,94.20
2018-11-29T01:35:21.752Z,94.70
2018-11-29T01:37:50.987Z,94.70
2018-11-29T01:40:22.737Z,92.50
2018-11-29T01:42:56.124Z,92.20
2018-11-29T01:45:26.334Z,92.00
2018-11-29T01:47:55.539Z,92.30
2018-11-29T01:50:25.249Z,92.50
2018-11-29T01:52:54.424Z,92.30
2018-11-29T01:55:24.039Z,92.00
2018-11-29T01:57:53.221Z,91.80
2018-11-29T02:00:23.061Z,91.80
2018-11-29T02:02:53.124Z,92.30
2018-11-29T02:05:22.425Z,92.30
2018-11-29T02:07:51.992Z,92.90
2018-11-29T02:10:27.835Z,93.00
2018-11-29T02:12:57.712Z,92.40
2018-11-29T02:15:27.420Z,91.80
2018-11-29T02:17:56.572Z,92.10
2018-11-29T02:20:25.781Z,91.40
2018-11-29T02:22:55.005Z,91.70
2018-11-29T02:25:24.291Z,91.90
2018-11-29T02:27:53.479Z,91.80
2018-11-29T02:30:23.500Z,91.90
2018-11-29T02:32:53.049Z,91.90
2018-11-29T02:35:22.198Z,91.50
2018-11-29T02:37:51.538Z,91.80
2018-11-29T02:40:20.728Z,91.70
2018-11-29T02:45:50.611Z,91.00
2018-11-29T02:48:19.548Z,91.20
2018-11-29T02:50:48.895Z,91.30
2018-11-29T02:53:17.871Z,91.30
2018-11-29T02:55:46.882Z,91.50
2018-11-29T02:58:16.111Z,91.50
2018-11-29T03:00:45.774Z,91.90
2018-11-29T03:03:14.730Z,91.90
2018-11-29T03:05:43.796Z,91.90
2018-11-29T03:08:13.644Z,91.90
2018-11-29T03:10:42.573Z,91.80
2018-11-29T03:13:12.490Z,91.60
2018-11-29T03:15:41.448Z,91.30
2018-11-29T03:18:10.375Z,91.50
2018-11-29T03:20:39.324Z,92.00
2018-11-29T03:23:08.365Z,92.40
2018-11-29T03:25:37.316Z,92.10
2018-11-29T03:28:06.672Z,92.30
2018-11-29T03:30:35.633Z,92.00
2018-11-29T03:33:04.554Z,92.40
2018-11-29T03:35:33.532Z,92.20
2018-11-29T03:38:02.465Z,92.50
2018-11-29T03:40:31.543Z,92.10
2018-11-29T03:43:00.554Z,92.40
2018-11-29T03:45:29.507Z,91.90
2018-11-29T03:47:59.360Z,91.50
2018-11-29T03:50:29.116Z,92.10
2018-11-29T03:52:58.324Z,91.60
2018-11-29T03:55:27.321Z,91.70
2018-11-29T03:57:56.365Z,91.40
2018-11-29T04:00:25.491Z,91.50
2018-11-29T04:02:56.120Z,90.50
2018-11-29T04:05:25.251Z,90.50
2018-11-29T04:07:54.480Z,90.80
2018-11-29T04:10:23.862Z,90.60
2018-11-29T04:12:52.892Z,90.50
2018-11-29T04:15:22.880Z,90.80
2018-11-29T04:17:51.866Z,90.90
2018-11-29T04:20:21.908Z,90.70
2018-11-29T04:22:51.434Z,90.70
2018-11-29T04:25:21.891Z,90.50
2018-11-29T04:27:51.084Z,90.80
2018-11-29T04:30:20.029Z,90.80
2018-11-29T04:32:49.005Z,90.50
2018-11-29T04:35:17.965Z,90.80
2018-11-29T04:37:47.404Z,91.20
2018-11-29T04:40:17.428Z,90.70
2018-11-29T04:42:46.727Z,90.50
2018-11-29T04:45:18.484Z,91.10
2018-11-29T04:47:47.922Z,91.20
2018-11-29T04:50:17.582Z,91.20
2018-11-29T04:52:46.527Z,91.20
2018-11-29T04:55:15.465Z,90.70
2018-11-29T04:57:44.405Z,91.30
2018-11-29T05:00:14.472Z,91.00
2018-11-29T05:02:43.511Z,90.80
2018-11-29T05:05:13.463Z,90.90
2018-11-29T05:07:42.419Z,90.70
2018-11-29T05:10:12.723Z,90.90
2018-11-29T05:12:41.656Z,91.10
2018-11-29T05:15:11.651Z,91.10
2018-11-29T05:17:40.701Z,91.00
2018-11-29T05:20:10.052Z,91.00
2018-11-29T05:22:38.932Z,90.60
2018-11-29T05:25:08.900Z,90.70
2018-11-29T05:27:37.925Z,90.80
2018-11-29T05:30:10.567Z,90.90
2018-11-29T05:32:39.468Z,91.10
2018-11-29T05:35:09.928Z,90.90
2018-11-29T05:37:39.712Z,91.00
2018-11-29T05:40:11.327Z,91.90
2018-11-29T05:42:40.323Z,92.70
2018-11-29T05:45:10.368Z,93.30
2018-11-29T05:47:39.405Z,94.00
2018-11-29T05:50:10.346Z,94.50
2018-11-29T05:52:39.888Z,94.80
2018-11-29T05:55:11.458Z,94.90
2018-11-29T05:57:40.504Z,95.30
2018-11-29T06:00:11.890Z,95.60
2018-11-29T06:02:40.948Z,95.90
2018-11-29T06:05:11.313Z,96.10
2018-11-29T06:07:40.808Z,96.40
2018-11-29T06:10:10.096Z,96.50
2018-11-29T06:12:39.240Z,96.50
2018-11-29T06:15:11.014Z,96.80
2018-11-29T06:17:40.465Z,96.80
2018-11-29T06:20:14.600Z,97.20
2018-11-29T06:22:43.656Z,97.20
2018-11-29T06:25:12.697Z,97.30
2018-11-29T06:27:41.625Z,97.50
2018-11-29T06:30:19.890Z,97.60
2018-11-29T06:32:49.573Z,98.00
2018-11-29T06:35:18.557Z,97.80
2018-11-29T06:37:47.612Z,97.50
2018-11-29T06:40:17.369Z,97.60
2018-11-29T06:42:46.550Z,97.50
2018-11-29T06:45:17.385Z,97.50
2018-11-29T06:47:47.428Z,97.70
2018-11-29T06:50:16.481Z,97.60
2018-11-29T06:52:46.555Z,97.80
2018-11-29T06:55:21.484Z,97.70
2018-11-29T06:57:51.247Z,97.50
2018-11-29T07:00:29.704Z,97.30
2018-11-29T07:02:58.821Z,97.70
2018-11-29T07:05:28.584Z,97.50
2018-11-29T07:07:58.510Z,97.50
2018-11-29T07:10:34.659Z,97.60
2018-11-29T07:13:05.877Z,97.60
2018-11-29T07:15:36.320Z,97.80
2018-11-29T07:18:06.549Z,97.70
2018-11-29T07:20:35.525Z,98.00
2018-11-29T07:23:05.632Z,97.90
2018-11-29T07:25:34.663Z,98.10
2018-11-29T07:28:04.204Z,97.90
2018-11-29T07:30:33.482Z,98.00
2018-11-29T07:33:03.288Z,97.70
2018-11-29T07:35:32.704Z,97.60
2018-11-29T07:38:02.185Z,97.60
2018-11-29T07:40:31.696Z,97.50
2018-11-29T07:43:01.588Z,97.80
2018-11-29T07:45:32.041Z,98.00
2018-11-29T07:48:01.749Z,97.40
2018-11-29T07:50:31.064Z,97.30
2018-11-29T07:53:00.548Z,97.70
2018-11-29T07:55:30.353Z,97.30
2018-11-29T07:58:00.876Z,97.10
2018-11-29T08:00:30.309Z,96.60
2018-11-29T08:02:59.352Z,96.60
2018-11-29T08:05:28.263Z,97.00
2018-11-29T08:07:57.250Z,96.30
2018-11-29T08:10:27.346Z,95.60
2018-11-29T08:12:56.902Z,94.70
2018-11-29T08:15:25.829Z,93.60
2018-11-29T08:17:55.957Z,93.60
2018-11-29T08:20:24.945Z,93.50
2018-11-29T08:22:53.920Z,93.90
2018-11-29T08:25:22.860Z,94.40
2018-11-29T08:27:52.497Z,94.20
2018-11-29T08:30:21.521Z,94.20
2018-11-29T08:32:51.543Z,94.70
2018-11-29T08:35:20.710Z,94.30
2018-11-29T08:37:50.224Z,93.80
2018-11-29T08:40:20.640Z,93.60
2018-11-29T08:42:49.692Z,93.50
2018-11-29T08:45:18.614Z,93.20
2018-11-29T08:47:48.212Z,92.90
2018-11-29T08:50:17.734Z,92.70
2018-11-29T08:52:47.854Z,92.10
2018-11-29T08:55:19.724Z,92.50
2018-11-29T08:57:49.746Z,91.60
2018-11-29T09:00:19.641Z,91.50
2018-11-29T09:02:49.630Z,91.00
2018-11-29T09:05:19.281Z,91.20
2018-11-29T09:07:49.614Z,91.10
2018-11-29T09:10:24.510Z,91.10
2018-11-29T09:12:54.201Z,90.50
2018-11-29T09:15:23.276Z,90.90
2018-11-29T09:17:52.203Z,90.50
2018-11-29T09:20:22.173Z,90.20
2018-11-29T09:22:51.120Z,89.60
2018-11-29T09:25:23.035Z,90.00
2018-11-29T09:27:53.341Z,89.00
2018-11-29T09:30:23.404Z,88.40
2018-11-29T09:32:53.475Z,88.40
2018-11-29T09:35:22.422Z,89.60
2018-11-29T09:37:51.517Z,87.80
2018-11-29T09:40:20.529Z,87.80
2018-11-29T09:42:49.539Z,88.10
2018-11-29T09:45:20.593Z,86.60
2018-11-29T09:47:55.861Z,86.70
2018-11-29T09:50:27.068Z,86.90
2018-11-29T09:52:56.052Z,86.90
2018-11-29T09:55:25.036Z,85.60
2018-11-29T09:57:54.139Z,85.00
2018-11-29T10:00:28.450Z,84.30
2018-11-29T10:03:08.589Z,83.90
2018-11-29T10:05:37.919Z,83.60
2018-11-29T10:08:11.870Z,83.50
2018-11-29T10:10:37.053Z,83.50
2018-11-29T10:13:07.083Z,82.70
2018-11-29T10:15:36.184Z,82.30
2018-11-29T10:18:05.722Z,81.90
2018-11-29T10:20:35.724Z,81.60
2018-11-29T10:23:05.878Z,81.60
2018-11-29T10:25:34.797Z,80.90
2018-11-29T10:28:12.829Z,80.60
2018-11-29T10:30:51.645Z,80.60
2018-11-29T10:33:21.253Z,80.40
2018-11-29T10:35:51.079Z,80.50
2018-11-29T10:38:20.501Z,80.20
2018-11-29T10:40:50.259Z,79.40
2018-11-29T10:43:19.859Z,79.50
2018-11-29T10:45:48.814Z,79.80
2018-11-29T10:48:19.681Z,79.20
2018-11-29T10:50:48.708Z,78.50
2018-11-29T10:53:17.941Z,78.90
2018-11-29T10:55:46.955Z,78.80
2018-11-29T10:58:15.946Z,78.60
2018-11-29T11:00:50.126Z,78.60
2018-11-29T11:03:20.058Z,78.80
2018-11-29T11:05:52.184Z,78.40
2018-11-29T11:08:21.611Z,77.60
2018-11-29T11:10:51.463Z,77.60
2018-11-29T11:13:20.562Z,77.00
2018-11-29T11:15:49.556Z,76.60
2018-11-29T11:18:18.897Z,76.50
2018-11-29T11:20:47.820Z,75.90
2018-11-29T11:23:16.864Z,75.90
2018-11-29T11:25:46.649Z,75.20
2018-11-29T11:28:15.589Z,74.90
2018-11-29T11:30:45.203Z,74.60
2018-11-29T11:33:14.218Z,74.60
2018-11-29T11:35:43.179Z,75.20
2018-11-29T11:38:12.107Z,75.00
2018-11-29T11:40:41.066Z,75.20
2018-11-29T11:43:09.984Z,75.60
2018-11-29T11:45:38.938Z,76.20
2018-11-29T11:48:08.110Z,75.80
2018-11-29T11:50:37.573Z,75.90
2018-11-29T11:53:08.158Z,75.50
2018-11-29T11:55:37.540Z,75.70
2018-11-29T11:58:07.538Z,76.00
2018-11-29T12:00:36.706Z,75.40
2018-11-29T12:03:11.064Z,74.90
2018-11-29T12:05:40.071Z,74.70
2018-11-29T12:08:09.097Z,73.70
2018-11-29T12:10:38.953Z,74.10
2018-11-29T12:13:08.372Z,74.30
2018-11-29T12:15:38.379Z,74.90
2018-11-29T12:18:11.491Z,75.00
2018-11-29T12:20:40.803Z,74.70
2018-11-29T12:23:10.104Z,74.70
2018-11-29T12:25:39.024Z,74.70
2018-11-29T12:28:07.966Z,75.00
2018-11-29T12:30:40.289Z,75.40
2018-11-29T12:33:09.229Z,75.90
2018-11-29T12:35:38.123Z,76.20
2018-11-29T12:38:08.942Z,76.40
2018-11-29T12:40:37.896Z,75.70
2018-11-29T12:43:07.285Z,75.40
2018-11-29T12:45:36.448Z,75.60
2018-11-29T12:48:05.629Z,76.00
2018-11-29T12:50:37.194Z,75.80
2018-11-29T12:53:06.854Z,75.50
2018-11-29T12:55:38.572Z,75.80
2018-11-29T12:58:07.273Z,76.00
2018-11-29T13:00:36.189Z,76.40
2018-11-29T13:05:37.458Z,76.60
2018-11-29T13:08:07.349Z,76.60
2018-11-29T13:10:36.320Z,77.10
2018-11-29T13:13:06.134Z,76.60
2018-11-29T13:15:35.532Z,76.70
2018-11-29T13:18:06.467Z,77.20
2018-11-29T13:20:35.477Z,78.10
2018-11-29T13:23:04.530Z,78.10
2018-11-29T13:25:33.494Z,78.60
2018-11-29T13:28:02.524Z,78.90
2018-11-29T13:30:31.461Z,79.20
2018-11-29T13:33:00.403Z,79.80
2018-11-29T13:35:33.501Z,79.60
2018-11-29T13:38:07.193Z,79.60
2018-11-29T13:40:36.110Z,80.50
2018-11-29T13:43:05.242Z,80.60
2018-11-29T13:45:34.333Z,80.20
2018-11-29T13:48:03.985Z,80.00
2018-11-29T13:50:32.927Z,79.20
2018-11-29T13:53:01.934Z,79.40
2018-11-29T13:55:30.861Z,79.90
2018-11-29T13:58:00.061Z,81.10
2018-11-29T14:00:29.856Z,81.80
2018-11-29T14:03:11.154Z,81.10
2018-11-29T14:05:40.828Z,81.00
2018-11-29T14:08:11.053Z,81.00
2018-11-29T14:10:41.373Z,81.20
2018-11-29T14:13:10.532Z,81.60
2018-11-29T14:15:40.027Z,81.90
2018-11-29T14:18:09.369Z,82.50
2018-11-29T14:20:38.379Z,82.70
2018-11-29T14:23:08.237Z,83.10
2018-11-29T14:25:38.051Z,83.80
2018-11-29T14:28:07.822Z,84.60
2018-11-29T14:30:36.746Z,85.20
2018-11-29T14:33:06.464Z,85.90
2018-11-29T14:35:35.574Z,86.60
2018-11-29T14:38:04.636Z,87.40
2018-11-29T14:40:35.891Z,87.40
2018-11-29T14:43:05.333Z,87.40
2018-11-29T14:45:34.304Z,87.80
2018-11-29T14:48:03.806Z,88.00
2018-11-29T14:50:34.961Z,88.90
2018-11-29T14:53:04.447Z,88.90
2018-11-29T14:55:33.353Z,89.30
2018-11-29T14:58:02.290Z,90.10
2018-11-29T15:00:31.301Z,90.40
2018-11-29T15:03:01.592Z,90.60
2018-11-29T15:05:32.489Z,90.80
2018-11-29T15:08:01.586Z,91.00
2018-11-29T15:10:30.501Z,91.30
2018-11-29T15:12:59.681Z,91.50
2018-11-29T15:15:28.594Z,91.60
2018-11-29T15:17:57.605Z,91.90
2018-11-29T15:20:39.433Z,92.10
2018-11-29T15:23:09.205Z,92.60
2018-11-29T15:25:38.121Z,92.40
2018-11-29T15:28:07.235Z,92.60
2018-11-29T15:30:36.120Z,92.80
2018-11-29T15:33:05.098Z,92.80
2018-11-29T15:35:34.024Z,93.00
2018-11-29T15:38:03.457Z,93.00
2018-11-29T15:40:32.486Z,93.00
2018-11-29T15:43:01.479Z,93.40
2018-11-29T15:45:30.390Z,93.50
2018-11-29T15:47:59.504Z,93.30
2018-11-29T15:50:28.412Z,93.40
2018-11-29T15:52:57.314Z,93.60
2018-11-29T15:55:26.293Z,93.70
2018-11-29T15:57:55.348Z,94.10
2018-11-29T16:00:28.453Z,94.20
2018-11-29T16:03:00.245Z,94.20
2018-11-29T16:05:29.244Z,94.00
2018-11-29T16:07:58.210Z,94.20
2018-11-29T16:10:27.798Z,94.10
2018-11-29T16:12:56.733Z,94.00
2018-11-29T16:15:25.664Z,94.20
2018-11-29T16:17:54.605Z,94.00
2018-11-29T16:20:26.489Z,94.20
2018-11-29T16:22:55.498Z,94.10
2018-11-29T16:25:24.796Z,94.20
2018-11-29T16:27:53.785Z,94.10
2018-11-29T16:30:36.027Z,94.20
2018-11-29T16:33:13.328Z,94.30
2018-11-29T16:35:42.320Z,94.30
2018-11-29T16:38:11.218Z,94.50
2018-11-29T16:40:40.484Z,94.30
2018-11-29T16:43:09.505Z,94.00
2018-11-29T16:45:38.448Z,94.20
2018-11-29T16:48:07.796Z,94.10
2018-11-29T16:50:37.713Z,93.90
2018-11-29T16:53:07.636Z,94.10
2018-11-29T16:55:37.041Z,94.00
2018-11-29T16:58:09.375Z,93.80
2018-11-29T17:00:38.424Z,93.60
2018-11-29T17:03:08.316Z,94.10
2018-11-29T17:05:37.393Z,93.80
2018-11-29T17:08:06.920Z,93.60
2018-11-29T17:10:36.157Z,93.60
2018-11-29T17:13:09.802Z,93.60
2018-11-29T17:15:38.797Z,93.50
2018-11-29T17:18:07.920Z,93.30
2018-11-29T17:20:37.233Z,93.10
2018-11-29T17:23:07.991Z,93.10
2018-11-29T17:25:37.005Z,92.80
2018-11-29T17:28:06.990Z,92.90
2018-11-29T17:30:36.534Z,92.90
2018-11-29T17:33:06.022Z,92.70
2018-11-29T17:35:35.023Z,92.90
2018-11-29T17:38:04.129Z,92.70
2018-11-29T17:40:33.527Z,92.90
2018-11-29T17:43:02.458Z,92.70
2018-11-29T17:45:31.645Z,92.90
2018-11-29T17:48:02.980Z,92.70
2018-11-29T17:50:34.263Z,92.90
2018-11-29T17:53:03.578Z,92.70
2018-11-29T17:55:32.531Z,92.70
2018-11-29T17:58:01.621Z,92.80
2018-11-29T18:00:33.133Z,92.80
2018-11-29T18:03:02.196Z,93.00
2018-11-29T18:05:31.237Z,92.70
2018-11-29T18:08:00.184Z,92.80
2018-11-29T18:10:31.149Z,92.80
2018-11-29T18:13:03.189Z,92.80
2018-11-29T18:15:33.857Z,93.10
2018-11-29T18:18:02.775Z,92.90
2018-11-29T18:20:31.793Z,93.10
2018-11-29T18:23:00.744Z,93.40
2018-11-29T18:25:29.865Z,93.30
2018-11-29T18:27:58.780Z,93.20
2018-11-29T18:30:27.825Z,93.40
2018-11-29T18:32:56.790Z,93.60
2018-11-29T18:35:25.788Z,93.80
2018-11-29T18:37:54.800Z,93.60
2018-11-29T18:40:23.820Z,93.60
2018-11-29T18:43:00.326Z,93.40
2018-11-29T18:45:29.437Z,93.60
2018-11-29T18:47:58.409Z,93.30
2018-11-29T18:50:27.494Z,93.40
2018-11-29T18:52:56.480Z,93.40
2018-11-29T18:55:29.713Z,93.10
2018-11-29T18:57:58.949Z,93.10
2018-11-29T19:00:29.344Z,93.40
2018-11-29T19:02:58.340Z,93.30
2018-11-29T19:05:27.237Z,92.90
2018-11-29T19:07:56.202Z,93.00
2018-11-29T19:10:25.521Z,92.90
2018-11-29T19:13:11.468Z,92.80
2018-11-29T19:15:40.908Z,92.70
2018-11-29T19:18:10.973Z,92.60
2018-11-29T19:20:39.569Z,92.70
2018-11-29T19:23:08.469Z,92.60
2018-11-29T19:25:37.500Z,92.60
2018-11-29T19:28:07.413Z,92.70
2018-11-29T19:30:36.932Z,92.70
2018-11-29T19:33:17.440Z,93.00
2018-11-29T19:35:45.565Z,92.80
2018-11-29T19:38:14.567Z,92.90
2018-11-29T19:40:43.607Z,92.90
2018-11-29T19:43:12.586Z,92.90
2018-11-29T19:45:41.602Z,93.00
2018-11-29T19:48:11.180Z,93.10
2018-11-29T19:50:40.236Z,92.90
2018-11-29T19:53:16.020Z,93.00
2018-11-29T19:55:45.074Z,93.20
2018-11-29T19:58:18.213Z,93.40
2018-11-29T20:00:47.754Z,93.20
2018-11-29T20:03:16.706Z,93.30
2018-11-29T20:05:46.746Z,93.50
2018-11-29T20:08:16.407Z,93.50
2018-11-29T20:10:46.446Z,93.60
2018-11-29T20:13:16.199Z,94.00
2018-11-29T20:15:47.364Z,93.50
2018-11-29T20:18:16.416Z,93.60
2018-11-29T20:20:45.831Z,93.60
2018-11-29T20:23:15.253Z,93.50
2018-11-29T20:25:45.231Z,93.60
2018-11-29T20:28:15.380Z,93.40
2018-11-29T20:30:46.239Z,93.40
2018-11-29T20:33:16.252Z,93.70
2018-11-29T20:35:45.185Z,93.60
2018-11-29T20:38:14.435Z,93.80
2018-11-29T20:40:45.179Z,93.80
2018-11-29T20:43:14.467Z,93.90
2018-11-29T20:45:51.516Z,93.60
2018-11-29T20:48:23.573Z,93.40
2018-11-29T20:50:53.868Z,93.40
2018-11-29T20:53:26.509Z,93.80
2018-11-29T20:55:55.993Z,93.40
2018-11-29T20:58:26.198Z,93.50
2018-11-29T21:00:55.193Z,93.90
2018-11-29T21:03:24.212Z,93.90
2018-11-29T21:05:53.229Z,93.80
2018-11-29T21:08:23.007Z,93.80
2018-11-29T21:10:52.241Z,93.90
2018-11-29T21:13:21.141Z,93.70
2018-11-29T21:15:50.113Z,93.90
2018-11-29T21:18:19.028Z,93.70
2018-11-29T21:20:48.030Z,93.90
2018-11-29T21:23:18.240Z,94.00
2018-11-29T21:25:47.471Z,93.70
2018-11-29T21:28:16.565Z,93.90
2018-11-29T21:30:45.584Z,93.80
2018-11-29T21:33:15.156Z,93.60
2018-11-29T21:35:44.097Z,93.80
2018-11-29T21:38:15.473Z,93.80
2018-11-29T21:40:52.974Z,93.70
2018-11-29T21:43:22.625Z,93.60
2018-11-29T21:45:51.701Z,93.50
2018-11-29T21:48:21.076Z,93.40
2018-11-29T21:50:50.671Z,93.30
2018-11-29T21:53:20.098Z,93.40
2018-11-29T21:55:49.140Z,93.20
2018-11-29T21:58:18.669Z,93.00
2018-11-29T22:00:47.564Z,93.10
2018-11-29T22:03:17.334Z,93.10
2018-11-29T22:05:46.309Z,93.20
2018-11-29T22:08:15.917Z,93.20
2018-11-29T22:10:45.901Z,93.20
2018-11-29T22:13:15.792Z,93.20
2018-11-29T22:15:44.885Z,93.10
2018-11-29T22:18:20.860Z,93.30
2018-11-29T22:20:53.700Z,93.00
2018-11-29T22:23:23.284Z,93.00
2018-11-29T22:25:53.536Z,93.10
2018-11-29T22:28:22.559Z,92.90
2018-11-29T22:30:51.477Z,92.80
2018-11-29T22:33:20.826Z,92.90
2018-11-29T22:35:51.088Z,93.10
2018-11-29T22:38:20.051Z,92.90
2018-11-29T22:40:49.416Z,92.80
2018-11-29T22:43:18.363Z,93.10
2018-11-29T22:45:47.336Z,93.10
2018-11-29T22:48:16.825Z,93.10
2018-11-29T22:50:46.697Z,93.10
2018-11-29T22:53:17.079Z,93.00
2018-11-29T22:55:45.997Z,93.10
2018-11-29T22:58:16.111Z,93.30
2018-11-29T23:00:51.853Z,93.20
2018-11-29T23:03:21.708Z,93.00
2018-11-29T23:05:51.104Z,93.00
2018-11-29T23:08:20.101Z,93.10
2018-11-29T23:10:49.189Z,93.00
2018-11-29T23:13:18.604Z,93.10
2018-11-29T23:15:47.656Z,92.90
2018-11-29T23:18:16.989Z,93.10
2018-11-29T23:20:45.955Z,93.00
2018-11-29T23:23:15.344Z,93.10
2018-11-29T23:25:44.568Z,92.80
2018-11-29T23:28:13.865Z,92.90
2018-11-29T23:30:42.803Z,92.70
2018-11-29T23:33:12.943Z,92.90
2018-11-29T23:35:43.107Z,92.80
2018-11-29T23:38:12.038Z,92.90
2018-11-29T23:40:41.765Z,92.80
2018-11-29T23:43:12.763Z,92.70
2018-11-29T23:45:41.780Z,93.30
2018-11-29T23:48:10.682Z,93.10
2018-11-29T23:50:41.033Z,93.30
2018-11-29T23:53:10.144Z,93.30
2018-11-29T23:55:39.304Z,92.70
2018-11-29T23:58:09.145Z,92.60
